Tha Tum, Thailand

6:24 AM ICT on July 04, 2015 (GMT +0700)
Sanam Chai, Satuk, Buriram, Thailand 31150 | | Change Station
CLOSE
Current Station
Personal Weather Station
Location: Mueang Kae, BURI RAM
Elevation: 551 ft
Nearby Weather Stations

Elev 551 ft 15.24 °N, 103.33 °E | Updated 24 seconds ago

Mostly Cloudy
Mostly Cloudy
81.3 °F
Feels Like 86 °F
N
2.0
Wind Variable Wind from West
Gusts 2.5 mph

Today
High -- | Low -- °F
--% Chance of Precip.
Yesterday
High -- | Low -- °F
Precip. -- in
5:39 AM 6:39 PM
Waning Gibbous, 95% visible
Pressure 29.62 in
Visibility 6.2 miles
Clouds Few 2500 ft
Mostly Cloudy 30000 ft
Heat Index 86 °F
Dew Point 71 °F
Humidity 72%
Rainfall 0.00 in
Snow Depth Not available.
UV 1.0 out of 12
Pollen Not available.
Air Quality Not available.
Flu Activity Not available.
METAR VTUV 032300Z 23006KT 9999 FEW025 BKN300 28/20 Q1003 A2963 INFO X RWY 18

More Conditions Fewer Conditions

Pressure 29.62 in
Visibility 6.2 miles
Clouds Few 2500 ft
Mostly Cloudy 30000 ft
Heat Index 86 °F
Dew Point 71 °F
Humidity 72%
Rainfall 0.00 in
Snow Depth Not available.
UV 1.0 out of 12
Pollen Not available.
Air Quality Not available.
Flu Activity Not available.
METAR VTUV 032300Z 23006KT 9999 FEW025 BKN300 28/20 Q1003 A2963 INFO X RWY 18

More Conditions Fewer Conditions

10-Day Weather Forecast

×

Almanac

Astronomy

Jul. 04, 2015 Rise Set
Actual Time
Civil Twilight
Nautical Twilight
Astronomical Twilight
Moon
Length of Visible Light
Length of Day
Tomorrow will be .
, % of the Moon is Illuminated

Today's Extremes

Country Highs Country Lows

Community

WunderPhotos

Upload Photos

1,834,821 photos uploaded!

WunderBlogs® & News

Nearby

Air Quality

  Air Quality AQ Index Pollutant
Not available.

Snow Depth

Station Depth Elevation

Earthquake Activity

City Distance Mag. Time & Date
Minimum magnitude displayed is 2.5.

Coastal Water Temperatures

Place Temperature

Stations

Nearby Weather Stations

Station Location Temp. Windchill Dew Point Humidity Wind Precip. Elev Updated Type